createdAt,value
2023-03-31T00:01:17.254Z,6.20
2023-03-31T00:06:22.156Z,4.72
2023-03-31T00:11:25.495Z,7.28
2023-03-31T00:16:29.156Z,5.25
2023-03-31T00:21:37.551Z,5.75
2023-03-31T00:26:41.872Z,4.13
2023-03-31T00:31:45.836Z,6.53
2023-03-31T00:36:50.582Z,5.70
2023-03-31T00:41:53.894Z,4.45
2023-03-31T00:47:01.505Z,5.68
2023-03-31T00:52:11.103Z,7.45
2023-03-31T00:57:16.153Z,6.68
2023-03-31T01:02:21.076Z,10.40
2023-03-31T01:07:31.099Z,5.82
2023-03-31T01:12:38.071Z,7.72
2023-03-31T01:17:45.050Z,5.20
2023-03-31T01:23:35.152Z,7.82
2023-03-31T01:28:44.207Z,5.43
2023-03-31T01:34:29.751Z,5.32
2023-03-31T01:40:00.691Z,10.88
2023-03-31T01:45:14.011Z,9.02
2023-03-31T01:50:23.736Z,8.35
2023-03-31T01:55:35.848Z,7.88
2023-03-31T02:00:43.230Z,5.93
2023-03-31T02:05:51.494Z,8.35
2023-03-31T02:10:58.656Z,8.02
2023-03-31T02:16:12.955Z,7.07
2023-03-31T02:21:23.965Z,14.10
2023-03-31T02:26:32.402Z,7.63
2023-03-31T02:31:42.832Z,4.72
2023-03-31T02:36:46.828Z,4.03
2023-03-31T02:41:51.591Z,8.20
2023-03-31T02:46:55.594Z,4.22
2023-03-31T02:52:29.143Z,7.30
2023-03-31T02:58:04.478Z,9.15
2023-03-31T03:03:25.660Z,10.50
2023-03-31T03:08:39.788Z,6.63
2023-03-31T03:13:48.899Z,6.57
2023-03-31T03:18:59.187Z,4.38
2023-03-31T03:24:02.740Z,3.63
2023-03-31T03:29:07.738Z,5.35
2023-03-31T03:34:11.320Z,14.85
2023-03-31T03:39:15.138Z,5.47
2023-03-31T03:44:19.888Z,7.75
2023-03-31T03:49:23.468Z,9.50
2023-03-31T03:54:28.360Z,6.68
2023-03-31T03:59:32.862Z,5.25
2023-03-31T04:04:36.131Z,9.93
2023-03-31T04:09:39.438Z,7.90
2023-03-31T04:14:44.126Z,10.70
2023-03-31T04:19:52.277Z,9.88
2023-03-31T04:24:58.727Z,5.80
2023-03-31T04:30:05.246Z,6.28
2023-03-31T04:35:09.196Z,4.63
2023-03-31T04:40:14.547Z,4.13
2023-03-31T04:45:19.660Z,9.05
2023-03-31T04:50:22.931Z,13.02
2023-03-31T04:55:28.114Z,5.65
2023-03-31T05:00:32.850Z,13.88
2023-03-31T05:05:36.313Z,10.10
2023-03-31T05:10:39.670Z,5.55
2023-03-31T05:15:46.150Z,13.38
2023-03-31T05:20:49.504Z,11.20
2023-03-31T05:25:52.827Z,7.28
2023-03-31T05:31:03.880Z,8.65
2023-03-31T05:36:10.152Z,8.07
2023-03-31T05:41:13.775Z,7.03
2023-03-31T05:46:18.956Z,11.32
2023-03-31T05:51:24.123Z,8.00
2023-03-31T05:56:29.503Z,8.60
2023-03-31T06:01:34.385Z,8.65
2023-03-31T06:06:38.706Z,8.93
2023-03-31T06:11:41.953Z,10.73
2023-03-31T06:16:51.498Z,9.05
2023-03-31T06:21:54.865Z,7.63
2023-03-31T06:26:58.842Z,9.52
2023-03-31T06:32:05.352Z,5.80
2023-03-31T06:37:08.691Z,8.68
2023-03-31T06:42:12.012Z,6.90
2023-03-31T06:47:17.241Z,7.93
2023-03-31T06:52:20.624Z,9.70
2023-03-31T06:57:27.481Z,8.07
2023-03-31T07:02:33.847Z,11.27
2023-03-31T07:07:38.448Z,7.97
2023-03-31T07:18:12.590Z,3.92
2023-03-31T07:23:16.311Z,6.07
2023-03-31T07:28:19.601Z,2.97
2023-03-31T07:33:24.508Z,1.75
2023-03-31T07:38:27.805Z,4.47
2023-03-31T07:43:31.177Z,4.93
2023-03-31T07:48:36.087Z,1.75
2023-03-31T07:53:41.562Z,3.00
2023-03-31T07:58:46.425Z,1.20
2023-03-31T08:03:54.309Z,0.70
2023-03-31T08:08:59.728Z,1.42
2023-03-31T08:14:04.557Z,1.17
2023-03-31T08:19:14.053Z,0.75
2023-03-31T08:24:17.337Z,0.60
2023-03-31T08:29:20.698Z,0.57
2023-03-31T08:34:25.845Z,0.75
2023-03-31T08:39:29.215Z,1.10
2023-03-31T08:44:36.824Z,0.40
2023-03-31T08:49:47.354Z,1.15
2023-03-31T08:54:53.721Z,1.95
2023-03-31T08:59:58.941Z,0.43
2023-03-31T09:05:32.006Z,0.68
2023-03-31T09:10:42.889Z,1.45
2023-03-31T09:15:55.083Z,1.20
2023-03-31T09:21:09.639Z,3.38
2023-03-31T09:31:48.642Z,1.83
2023-03-31T09:36:53.870Z,0.98
2023-03-31T09:42:06.712Z,2.13
2023-03-31T09:52:49.113Z,1.77
2023-03-31T09:57:53.181Z,1.83
2023-03-31T10:03:01.764Z,3.58
2023-03-31T10:08:26.684Z,7.28
2023-03-31T10:13:36.970Z,6.10
2023-03-31T10:18:42.787Z,5.68
2023-03-31T10:23:51.803Z,5.10
2023-03-31T10:28:56.031Z,6.20
2023-03-31T10:34:06.402Z,3.85
2023-03-31T10:39:21.150Z,8.63
2023-03-31T10:44:38.601Z,6.72
2023-03-31T10:49:45.518Z,3.67
2023-03-31T10:54:59.785Z,8.35
2023-03-31T11:00:19.793Z,3.53
2023-03-31T11:05:30.289Z,2.17
2023-03-31T11:10:55.140Z,6.53
2023-03-31T11:16:05.379Z,5.32
2023-03-31T11:21:23.035Z,16.58
2023-03-31T11:26:38.545Z,6.40
2023-03-31T11:31:50.876Z,6.60
2023-03-31T11:37:16.782Z,1.90
2023-03-31T11:42:28.570Z,0.73
2023-03-31T11:47:35.083Z,3.33
2023-03-31T11:52:48.282Z,0.45
2023-03-31T11:58:02.803Z,1.02
2023-03-31T12:03:12.554Z,1.85
2023-03-31T12:08:23.664Z,1.42
2023-03-31T12:13:45.859Z,0.80
2023-03-31T12:19:03.160Z,0.25
2023-03-31T12:24:08.386Z,1.05
2023-03-31T12:29:36.529Z,0.85
2023-03-31T12:35:02.586Z,1.70
2023-03-31T12:40:17.582Z,2.50
2023-03-31T12:45:29.207Z,3.20
2023-03-31T12:50:47.197Z,0.95
2023-03-31T12:55:53.890Z,1.88
2023-03-31T13:01:16.231Z,1.65
2023-03-31T13:06:49.597Z,1.88
2023-03-31T13:11:53.052Z,3.97
2023-03-31T13:17:14.855Z,2.80
2023-03-31T13:22:36.241Z,3.50
2023-03-31T13:27:49.352Z,7.18
2023-03-31T13:33:09.175Z,3.25
2023-03-31T13:38:23.558Z,6.50
2023-03-31T13:43:57.389Z,2.85
2023-03-31T13:49:12.366Z,7.32
2023-03-31T13:54:53.924Z,4.72
2023-03-31T14:00:19.887Z,2.10
2023-03-31T14:05:43.706Z,3.33
2023-03-31T14:10:47.229Z,1.88
2023-03-31T14:15:55.004Z,3.72
2023-03-31T14:21:20.678Z,2.03
2023-03-31T14:26:42.445Z,1.73
2023-03-31T14:31:54.863Z,0.68
2023-03-31T14:37:03.362Z,1.08
2023-03-31T14:42:12.158Z,1.88
2023-03-31T14:47:17.306Z,2.17
2023-03-31T14:52:24.511Z,2.47
2023-03-31T14:57:32.838Z,0.25
2023-03-31T15:02:38.948Z,0.93
2023-03-31T15:07:45.001Z,0.75
2023-03-31T15:12:49.371Z,1.60
2023-03-31T15:17:53.130Z,0.82
2023-03-31T15:22:59.517Z,2.47
2023-03-31T15:28:07.427Z,1.88
2023-03-31T15:33:21.322Z,1.63
2023-03-31T15:38:30.731Z,1.13
2023-03-31T15:43:47.333Z,4.10
2023-03-31T15:48:53.186Z,1.40
2023-03-31T15:53:59.016Z,1.33
2023-03-31T15:59:04.473Z,2.55
2023-03-31T16:04:12.396Z,1.02
2023-03-31T16:09:23.408Z,3.60
2023-03-31T16:14:32.604Z,1.40
2023-03-31T16:19:42.755Z,1.17
2023-03-31T16:24:47.827Z,3.00
2023-03-31T16:29:51.996Z,0.40
2023-03-31T16:35:00.096Z,2.60
2023-03-31T16:40:06.213Z,2.90
2023-03-31T16:45:14.825Z,4.45
2023-03-31T16:50:22.905Z,2.55
2023-03-31T16:55:27.562Z,2.78
2023-03-31T17:00:32.144Z,3.40
2023-03-31T17:05:39.901Z,1.33
2023-03-31T17:10:53.529Z,5.30
2023-03-31T17:16:13.164Z,6.13
2023-03-31T17:21:20.932Z,4.55
2023-03-31T17:26:27.510Z,0.57
2023-03-31T17:31:32.053Z,1.52
2023-03-31T17:36:35.476Z,6.75
2023-03-31T17:41:40.123Z,0.90
2023-03-31T17:46:43.454Z,2.97
2023-03-31T17:51:48.635Z,2.80
2023-03-31T17:56:53.382Z,4.85
2023-03-31T18:01:56.988Z,8.32
2023-03-31T18:07:00.498Z,4.05
2023-03-31T18:12:05.701Z,1.40
2023-03-31T18:17:11.822Z,2.20
2023-03-31T18:22:15.987Z,5.40
2023-03-31T18:27:21.692Z,3.90
2023-03-31T18:32:26.581Z,2.10
2023-03-31T18:37:31.828Z,3.33
2023-03-31T18:42:37.030Z,6.88
2023-03-31T18:47:40.437Z,6.07
2023-03-31T18:52:43.870Z,1.23
2023-03-31T18:57:48.520Z,5.55
2023-03-31T19:02:52.151Z,2.33
2023-03-31T19:07:56.458Z,3.63
2023-03-31T19:13:01.387Z,2.75
2023-03-31T19:18:04.813Z,1.10
2023-03-31T19:23:08.084Z,2.03
2023-03-31T19:28:20.327Z,4.88
2023-03-31T19:33:23.929Z,3.17
2023-03-31T19:38:33.323Z,2.47
2023-03-31T19:43:38.379Z,6.13
2023-03-31T19:48:41.573Z,5.35
2023-03-31T19:53:44.861Z,3.05
2023-03-31T19:58:50.395Z,3.20
2023-03-31T20:03:54.780Z,7.22
2023-03-31T20:09:00.011Z,2.55
2023-03-31T20:14:05.316Z,6.40
2023-03-31T20:19:11.516Z,3.00
2023-03-31T20:24:17.616Z,5.35
2023-03-31T20:29:22.745Z,9.07
2023-03-31T20:34:27.627Z,8.07
2023-03-31T20:39:31.289Z,3.13
2023-03-31T20:44:36.240Z,5.82
2023-03-31T20:49:39.589Z,5.15
2023-03-31T20:54:43.898Z,7.32
2023-03-31T20:59:48.440Z,5.72
2023-03-31T21:04:52.638Z,5.40
2023-03-31T21:09:56.096Z,3.13
2023-03-31T21:15:00.808Z,5.25
2023-03-31T21:20:04.514Z,5.40
2023-03-31T21:25:09.038Z,2.60
2023-03-31T21:30:17.100Z,6.70
2023-03-31T21:35:20.296Z,5.97
2023-03-31T21:40:24.591Z,2.45
2023-03-31T21:45:29.397Z,3.90
2023-03-31T21:50:34.606Z,3.45
2023-03-31T21:55:39.568Z,2.17
2023-03-31T22:00:44.216Z,2.67
2023-03-31T22:05:47.527Z,1.13
2023-03-31T22:10:52.021Z,3.45
2023-03-31T22:15:57.103Z,0.90
2023-03-31T22:21:01.030Z,2.25
2023-03-31T22:26:05.514Z,0.63
2023-03-31T22:31:10.628Z,0.50
2023-03-31T22:36:14.077Z,3.85
2023-03-31T22:41:17.427Z,2.15
2023-03-31T22:46:22.367Z,3.72
2023-03-31T22:51:25.804Z,4.95
2023-03-31T22:56:29.472Z,2.50
2023-03-31T23:01:34.091Z,4.63
2023-03-31T23:06:37.521Z,5.03
2023-03-31T23:11:40.903Z,1.77
2023-03-31T23:16:45.749Z,4.07
2023-03-31T23:21:49.583Z,2.40
2023-03-31T23:26:53.548Z,4.07
2023-03-31T23:31:58.339Z,4.65
2023-03-31T23:37:01.839Z,5.22
2023-03-31T23:42:05.382Z,1.50
2023-03-31T23:47:09.995Z,4.30
2023-03-31T23:52:14.230Z,2.30
2023-03-31T23:57:17.793Z,1.98
